Time;durP1;ratioP1;P1;durP2;ratioP2;P2;SDS_P1;SDS_P2;PMS_P1;PMS_P2;Temp;Humidity;BMP_temperature;BMP_pressure;BME280_temperature;BME280_humidity;BME280_pressure;Samples;Min_cycle;Max_cycle;Signal;HPM_P1;HPM_P2
2023/04/05 00:00:47;;;;;;;4.60;2.53;;;3.00;77.10;;;;;;5054903;28;20028;-43
2023/04/05 00:03:17;;;;;;;6.90;2.70;;;2.90;77.30;;;;;;5055518;28;20472;-49
2023/04/05 00:05:48;;;;;;;3.85;2.10;;;2.90;77.60;;;;;;5074915;28;20165;-47
2023/04/05 00:08:22;;;;;;;5.63;2.65;;;2.80;77.90;;;;;;5074216;28;20052;-46
2023/04/05 00:10:51;;;;;;;4.70;2.75;;;2.70;78.20;;;;;;5071180;28;20044;-44
2023/04/05 00:13:20;;;;;;;6.75;2.40;;;2.70;78.30;;;;;;5054876;28;20028;-48
2023/04/05 00:15:47;;;;;;;5.05;2.47;;;2.50;78.60;;;;;;5053667;28;20044;-44
2023/04/05 00:18:24;;;;;;;6.75;2.65;;;2.50;78.90;;;;;;5053640;28;20028;-48
2023/04/05 00:20:51;;;;;;;5.60;2.00;;;2.40;79.30;;;;;;5054077;28;20056;-46
2023/04/05 00:23:27;;;;;;;5.28;2.88;;;2.40;79.50;;;;;;5052457;28;20032;-45
2023/04/05 00:25:54;;;;;;;4.88;2.55;;;2.40;79.70;;;;;;5038332;28;20025;-46
2023/04/05 00:28:23;;;;;;;5.18;2.22;;;2.40;80.20;;;;;;5056498;28;20354;-47
2023/04/05 00:30:51;;;;;;;4.13;2.40;;;2.30;80.20;;;;;;5074569;28;20237;-45
2023/04/05 00:33:21;;;;;;;4.93;2.40;;;2.30;80.50;;;;;;5073602;28;20028;-48
2023/04/05 00:35:48;;;;;;;7.30;3.22;;;2.20;80.60;;;;;;5074311;28;20035;-48
2023/04/05 00:38:17;;;;;;;5.72;2.60;;;2.20;80.90;;;;;;5061624;28;20040;-47
2023/04/05 00:40:44;;;;;;;7.22;2.72;;;2.20;81.20;;;;;;5053088;28;20035;-45
2023/04/05 00:43:10;;;;;;;5.80;2.67;;;2.10;81.50;;;;;;5052917;28;20051;-49
2023/04/05 00:45:36;;;;;;;6.22;2.60;;;2.10;81.70;;;;;;5052645;28;20050;-47
2023/04/05 00:48:05;;;;;;;4.85;2.70;;;2.10;81.90;;;;;;5052469;28;20032;-45
2023/04/05 00:50:33;;;;;;;6.50;3.05;;;2.10;82.00;;;;;;5052734;28;20108;-45
2023/04/05 00:52:59;;;;;;;5.35;3.38;;;2.00;82.10;;;;;;5056802;28;20024;-48
2023/04/05 00:55:29;;;;;;;7.57;3.13;;;2.00;82.30;;;;;;5074139;28;20107;-44
2023/04/05 00:57:57;;;;;;;6.68;3.08;;;2.00;82.50;;;;;;5071988;28;20043;-44
2023/04/05 01:00:26;;;;;;;4.43;2.83;;;1.90;82.60;;;;;;5054174;28;20108;-47
2023/04/05 01:03:05;;;;;;;7.88;3.20;;;1.90;82.70;;;;;;5053621;28;20029;-49
2023/04/05 01:05:39;;;;;;;;;;;1.90;82.90;;;;;;5053299;28;20039;-47
2023/04/05 01:08:30;;;;;;;4.30;2.85;;;1.90;83.00;;;;;;5053416;28;19974;-44
2023/04/05 01:11:05;;;;;;;4.65;2.63;;;1.90;83.00;;;;;;5053552;28;20056;-47
2023/04/05 01:13:32;;;;;;;6.18;3.40;;;1.90;83.30;;;;;;5053045;28;20032;-52
2023/04/05 01:16:03;;;;;;;7.22;3.15;;;1.90;83.60;;;;;;5053440;28;20025;-47
2023/04/05 01:18:35;;;;;;;9.50;3.28;;;1.80;83.60;;;;;;5053275;28;20035;-50
2023/04/05 01:21:42;;;;;;;7.32;2.70;;;1.80;83.80;;;;;;5053011;28;20052;-46
2023/04/05 01:24:51;;;;;;;5.25;3.30;;;1.80;83.80;;;;;;5053001;28;20025;-45
2023/04/05 01:28:05;;;;;;;4.80;2.90;;;1.70;83.90;;;;;;5052423;28;20082;-45
2023/04/05 01:30:36;;;;;;;7.78;3.55;;;1.70;84.10;;;;;;5040432;28;20295;-49
2023/04/05 01:33:43;;;;;;;6.72;3.40;;;1.60;84.20;;;;;;5052207;28;20029;-48
2023/04/05 01:36:52;;;;;;;5.22;3.20;;;1.60;84.40;;;;;;5032943;28;20051;-50
2023/04/05 01:39:21;;;;;;;4.85;2.83;;;1.60;84.50;;;;;;5047058;28;20041;-45
2023/04/05 01:41:47;;;;;;;6.33;3.57;;;1.60;84.70;;;;;;5053003;28;20104;-51
2023/04/05 01:44:14;;;;;;;8.07;4.00;;;1.60;84.80;;;;;;5051745;28;20792;-50
2023/04/05 01:46:41;;;;;;;6.38;2.97;;;1.60;84.80;;;;;;5052220;28;20401;-45
2023/04/05 01:49:10;;;;;;;8.52;4.25;;;1.60;85.00;;;;;;5052944;28;20037;-47
2023/04/05 01:51:40;;;;;;;5.88;3.60;;;1.60;85.10;;;;;;5052761;28;20053;-47
2023/04/05 01:54:06;;;;;;;7.03;3.53;;;1.60;85.10;;;;;;5052710;28;20088;-45
2023/04/05 01:56:33;;;;;;;7.63;3.42;;;1.50;85.00;;;;;;5051828;28;20132;-45
2023/04/05 01:59:00;;;;;;;6.18;3.60;;;1.50;85.30;;;;;;5070193;28;20040;-47
2023/04/05 02:01:29;;;;;;;6.45;3.35;;;1.50;85.20;;;;;;5071974;28;20024;-45
2023/04/05 02:03:57;;;;;;;8.43;3.50;;;1.50;85.20;;;;;;5073283;28;20020;-48
2023/04/05 02:06:27;;;;;;;6.25;3.55;;;1.50;85.30;;;;;;5053065;28;20343;-47
2023/04/05 02:08:55;;;;;;;5.88;3.35;;;1.40;85.30;;;;;;5052416;28;20049;-46
2023/04/05 02:11:26;;;;;;;6.90;3.83;;;1.50;85.40;;;;;;5052898;28;20056;-45
2023/04/05 02:13:53;;;;;;;6.95;3.22;;;1.40;85.50;;;;;;5052962;28;20411;-46
2023/04/05 02:16:25;;;;;;;5.65;3.33;;;1.40;85.50;;;;;;5052835;28;20078;-47
2023/04/05 02:18:58;;;;;;;7.70;3.67;;;1.40;85.50;;;;;;5071495;28;20052;-45
2023/04/05 02:21:25;;;;;;;7.95;4.00;;;1.40;85.50;;;;;;5069281;28;20029;-45
2023/04/05 02:24:03;;;;;;;7.72;3.53;;;1.40;85.60;;;;;;5052419;28;20099;-46
2023/04/05 02:26:30;;;;;;;8.57;4.82;;;1.40;85.60;;;;;;5052701;28;20457;-47
2023/04/05 02:28:56;;;;;;;9.93;4.75;;;1.30;85.70;;;;;;5052478;28;20713;-47
2023/04/05 02:31:23;;;;;;;8.65;4.43;;;1.30;85.80;;;;;;5051656;28;20350;-49
2023/04/05 02:33:51;;;;;;;11.32;5.20;;;1.30;85.80;;;;;;5051307;28;20116;-46
2023/04/05 02:36:18;;;;;;;12.65;4.57;;;1.30;85.80;;;;;;5052119;28;20032;-45
2023/04/05 02:38:44;;;;;;;7.45;4.82;;;1.30;85.80;;;;;;5051244;28;20406;-47
2023/04/05 02:41:11;;;;;;;6.45;3.92;;;1.30;85.90;;;;;;5051683;28;20053;-45
2023/04/05 02:43:38;;;;;;;10.25;4.97;;;1.30;86.00;;;;;;5052454;28;20029;-45
2023/04/05 02:46:10;;;;;;;7.15;3.90;;;1.20;86.00;;;;;;5036509;28;20351;-48
2023/04/05 02:48:37;;;;;;;6.95;4.35;;;1.30;86.00;;;;;;5054833;28;20033;-46
2023/04/05 02:51:03;;;;;;;7.90;4.05;;;1.20;86.00;;;;;;5054937;28;20094;-46
2023/04/05 02:53:30;;;;;;;8.00;4.25;;;1.20;86.00;;;;;;5056082;28;20475;-50
2023/04/05 02:55:58;;;;;;;6.45;4.45;;;1.20;86.10;;;;;;5055493;28;20021;-46
2023/04/05 02:58:24;;;;;;;6.35;4.05;;;1.20;86.10;;;;;;5055835;28;20060;-46
2023/04/05 03:00:53;;;;;;;8.85;4.35;;;1.10;86.20;;;;;;5055822;28;20450;-48
2023/04/05 03:03:22;;;;;;;8.50;4.50;;;1.10;86.20;;;;;;5055959;28;20469;-46
2023/04/05 03:06:08;;;;;;;6.78;4.25;;;1.10;86.30;;;;;;5037728;28;20374;-45
2023/04/05 03:08:45;;;;;;;7.47;4.10;;;1.10;86.30;;;;;;5054398;28;20053;-48
2023/04/05 03:11:12;;;;;;;7.68;4.60;;;1.00;86.30;;;;;;5051827;28;20044;-47
2023/04/05 03:13:40;;;;;;;10.00;5.07;;;1.00;86.30;;;;;;5055973;28;20029;-46
2023/04/05 03:16:09;;;;;;;9.13;4.35;;;1.00;86.30;;;;;;5038774;28;20099;-45
2023/04/05 03:18:38;;;;;;;;;;;0.90;86.30;;;;;;5055122;28;20029;-46
2023/04/05 03:21:09;;;;;;;6.40;3.63;;;0.90;86.40;;;;;;5055687;28;19912;-46
2023/04/05 03:23:38;;;;;;;8.20;4.28;;;0.90;86.50;;;;;;5055591;28;20343;-47
2023/04/05 03:26:04;;;;;;;6.53;4.03;;;0.90;86.50;;;;;;5055516;28;20029;-48
2023/04/05 03:28:31;;;;;;;10.65;4.82;;;0.90;86.40;;;;;;5055358;28;20056;-45
2023/04/05 03:30:57;;;;;;;10.80;4.53;;;0.80;86.40;;;;;;5037712;28;20362;-46
2023/04/05 03:33:25;;;;;;;11.32;4.78;;;0.80;86.50;;;;;;5054577;28;20017;-47
2023/04/05 03:35:53;;;;;;;6.78;3.85;;;0.80;86.60;;;;;;5055945;28;20037;-45
2023/04/05 03:38:21;;;;;;;7.15;4.45;;;0.70;86.60;;;;;;5075319;28;20104;-48
2023/04/05 03:40:48;;;;;;;12.25;4.63;;;0.70;86.70;;;;;;5075287;28;20023;-45
2023/04/05 03:43:15;;;;;;;9.43;4.65;;;0.70;86.60;;;;;;5061648;28;20096;-48
2023/04/05 03:45:41;;;;;;;8.05;4.93;;;0.70;86.60;;;;;;5055142;28;20036;-49
2023/04/05 03:48:09;;;;;;;8.23;5.05;;;0.70;86.70;;;;;;5054097;28;20025;-45
2023/04/05 03:50:37;;;;;;;8.55;4.70;;;0.70;86.90;;;;;;5054789;28;20017;-48
2023/04/05 03:53:04;;;;;;;9.68;4.70;;;0.70;86.70;;;;;;5054931;28;20124;-46
2023/04/05 03:55:30;;;;;;;8.15;4.82;;;0.60;86.70;;;;;;5054285;28;20454;-49
2023/04/05 03:57:57;;;;;;;9.63;5.05;;;0.60;86.80;;;;;;5053762;28;20738;-48
2023/04/05 04:00:29;;;;;;;8.27;4.88;;;0.60;86.90;;;;;;5065396;28;20090;-47
2023/04/05 04:02:56;;;;;;;10.48;6.07;;;0.60;87.00;;;;;;5055081;28;20047;-46
2023/04/05 04:05:25;;;;;;;8.85;4.88;;;0.60;87.10;;;;;;5054663;28;20456;-47
2023/04/05 04:07:52;;;;;;;9.57;5.88;;;0.50;87.10;;;;;;5062878;28;20032;-47
2023/04/05 04:10:18;;;;;;;7.40;4.95;;;0.50;87.10;;;;;;5074668;28;20111;-50
2023/04/05 04:12:47;;;;;;;9.25;5.93;;;0.50;87.20;;;;;;5074686;28;20091;-48
2023/04/05 04:15:14;;;;;;;8.15;5.97;;;0.50;87.30;;;;;;5074708;28;20094;-49
2023/04/05 04:17:43;;;;;;;8.48;6.20;;;0.50;87.40;;;;;;5059892;28;20036;-48
2023/04/05 04:20:11;;;;;;;10.23;6.47;;;0.50;87.50;;;;;;5054455;28;20078;-46
2023/04/05 04:22:39;;;;;;;11.13;6.55;;;0.50;87.60;;;;;;5054256;28;20358;-45
2023/04/05 04:25:11;;;;;;;9.65;6.47;;;0.40;87.50;;;;;;5063394;28;20059;-51
2023/04/05 04:27:43;;;;;;;10.43;6.30;;;0.40;87.70;;;;;;5074341;28;20060;-47
2023/04/05 04:30:12;;;;;;;10.70;6.68;;;0.40;87.70;;;;;;5038012;28;20050;-51
2023/04/05 04:32:56;;;;;;;10.73;6.57;;;0.40;87.80;;;;;;5053323;28;20031;-48
2023/04/05 04:35:45;;;;;;;9.68;7.13;;;0.40;87.80;;;;;;5053732;28;20021;-49
2023/04/05 04:38:19;;;;;;;15.00;8.13;;;0.40;88.00;;;;;;5059052;28;20154;-50
2023/04/05 04:40:46;;;;;;;12.88;7.30;;;0.40;88.10;;;;;;5074373;28;20047;-49
2023/04/05 04:43:13;;;;;;;10.00;7.25;;;0.30;88.00;;;;;;5073818;28;20032;-45
2023/04/05 04:45:50;;;;;;;12.75;8.27;;;0.30;88.10;;;;;;5069426;28;20028;-48
2023/04/05 04:48:17;;;;;;;11.05;7.47;;;0.30;88.20;;;;;;5053800;28;20146;-49
2023/04/05 04:50:48;;;;;;;13.32;8.32;;;0.30;88.20;;;;;;5053901;28;20096;-49
2023/04/05 04:53:20;;;;;;;12.98;8.13;;;0.30;88.10;;;;;;5054161;28;20033;-51
2023/04/05 04:55:56;;;;;;;11.45;8.45;;;0.20;88.10;;;;;;5053642;28;20442;-49
2023/04/05 04:58:23;;;;;;;11.73;8.10;;;0.30;88.20;;;;;;5052641;28;20350;-46
2023/04/05 05:00:52;;;;;;;11.65;9.23;;;0.30;88.20;;;;;;5053737;28;20447;-51
2023/04/05 05:03:18;;;;;;;15.10;9.88;;;0.20;88.10;;;;;;5062285;28;20350;-47
2023/04/05 05:06:02;;;;;;;14.20;10.18;;;0.30;88.10;;;;;;5073713;28;20043;-48
2023/04/05 05:08:32;;;;;;;12.98;9.48;;;0.30;88.10;;;;;;5072801;28;20428;-46
2023/04/05 05:11:01;;;;;;;13.50;9.02;;;0.20;88.00;;;;;;5068692;28;20029;-45
2023/04/05 05:13:26;;;;;;;13.05;10.00;;;0.20;88.20;;;;;;5053513;28;20029;-46
2023/04/05 05:15:53;;;;;;;16.05;10.70;;;0.30;88.30;;;;;;5053344;28;20036;-45
2023/04/05 05:18:20;;;;;;;17.50;12.05;;;0.30;88.40;;;;;;5052962;28;20702;-46
2023/04/05 05:20:50;;;;;;;15.95;10.70;;;0.40;88.30;;;;;;5053434;28;20021;-48
2023/04/05 05:23:20;;;;;;;15.25;11.30;;;0.40;88.30;;;;;;5036035;28;20068;-47
2023/04/05 05:25:49;;;;;;;15.55;11.57;;;0.40;88.50;;;;;;5053116;28;20033;-47
2023/04/05 05:28:18;;;;;;;15.93;11.88;;;0.50;88.60;;;;;;5052361;28;20025;-49
2023/04/05 05:30:44;;;;;;;20.92;12.52;;;0.50;88.70;;;;;;5053228;28;20366;-45
2023/04/05 05:33:12;;;;;;;17.98;12.48;;;0.50;88.70;;;;;;5053499;28;20094;-48
2023/04/05 05:35:47;;;;;;;16.15;11.27;;;0.60;88.70;;;;;;5053251;28;20104;-46
2023/04/05 05:38:16;;;;;;;17.35;12.57;;;0.60;88.70;;;;;;5053027;28;20057;-49
2023/04/05 05:40:45;;;;;;;16.77;12.63;;;0.70;88.70;;;;;;5053090;28;20033;-50
2023/04/05 05:43:14;;;;;;;15.50;11.73;;;0.70;88.80;;;;;;5052364;28;20060;-46
2023/04/05 05:45:42;;;;;;;20.87;12.83;;;0.80;88.80;;;;;;5053249;28;20032;-46
2023/04/05 05:48:08;;;;;;;15.15;11.10;;;0.80;88.70;;;;;;5052996;28;20283;-48
2023/04/05 05:50:38;;;;;;;17.00;12.05;;;0.90;88.60;;;;;;5052783;28;20033;-48
2023/04/05 05:53:17;;;;;;;17.42;12.45;;;0.90;88.70;;;;;;5053160;28;20432;-49
2023/04/05 05:55:44;;;;;;;19.30;13.15;;;0.90;88.70;;;;;;5053303;28;20111;-46
2023/04/05 05:58:10;;;;;;;15.82;12.20;;;0.90;88.70;;;;;;5051683;28;20103;-46
2023/04/05 06:00:37;;;;;;;14.02;10.52;;;1.00;88.80;;;;;;5052881;28;20099;-46
2023/04/05 06:03:05;;;;;;;16.33;11.27;;;1.10;88.90;;;;;;5053288;28;20409;-46
2023/04/05 06:05:33;;;;;;;15.70;10.93;;;1.20;89.00;;;;;;5052890;28;20033;-46
2023/04/05 06:08:00;;;;;;;14.88;11.75;;;1.20;89.10;;;;;;5051533;28;22544;-49
2023/04/05 06:10:25;;;;;;;13.80;11.32;;;1.30;89.00;;;;;;5052473;28;20098;-46
2023/04/05 06:12:52;;;;;;;15.27;11.48;;;1.40;89.00;;;;;;5052917;28;20029;-45
2023/04/05 06:15:19;;;;;;;14.05;10.63;;;1.50;89.10;;;;;;5051846;28;20484;-48
2023/04/05 06:17:47;;;;;;;13.60;10.95;;;1.70;89.10;;;;;;5065554;28;20021;-45
2023/04/05 06:20:14;;;;;;;17.48;11.98;;;1.80;89.10;;;;;;5073120;28;20484;-44
2023/04/05 06:22:40;;;;;;;19.52;11.55;;;1.90;89.10;;;;;;5076997;28;20055;-45
2023/04/05 06:25:08;;;;;;;17.67;11.95;;;2.00;89.10;;;;;;5067191;28;20430;-43
2023/04/05 06:27:36;;;;;;;17.83;12.60;;;2.30;89.00;;;;;;5055385;28;20028;-44
2023/04/05 06:30:04;;;;;;;14.50;11.27;;;2.40;89.00;;;;;;5055582;28;20040;-44
2023/04/05 06:32:32;;;;;;;18.20;13.20;;;2.50;88.90;;;;;;5056577;28;20116;-45
2023/04/05 06:35:00;;;;;;;16.17;11.25;;;2.70;88.80;;;;;;5055771;28;20021;-43
2023/04/05 06:37:27;;;;;;;14.80;11.13;;;2.80;88.70;;;;;;5055751;28;20029;-48
2023/04/05 06:39:55;;;;;;;14.40;10.82;;;2.90;88.50;;;;;;5063614;28;20362;-45
2023/04/05 06:42:23;;;;;;;16.92;11.73;;;3.00;88.60;;;;;;5076536;28;20032;-44
2023/04/05 06:44:51;;;;;;;14.57;11.25;;;3.20;88.50;;;;;;5076424;28;20032;-43
2023/04/05 06:47:17;;;;;;;12.82;10.45;;;3.30;88.40;;;;;;5076193;28;20063;-44
2023/04/05 06:49:45;;;;;;;12.85;10.20;;;3.40;88.20;;;;;;5056538;28;20131;-44
2023/04/05 06:52:13;;;;;;;12.55;9.30;;;3.70;88.10;;;;;;5056142;28;20081;-43
2023/04/05 06:54:40;;;;;;;12.05;8.50;;;3.80;87.80;;;;;;5056192;28;20025;-44
2023/04/05 06:57:06;;;;;;;12.85;7.32;;;4.10;87.40;;;;;;5066059;28;20412;-46
2023/04/05 06:59:33;;;;;;;12.75;8.40;;;4.30;86.60;;;;;;5075758;28;20024;-44
2023/04/05 07:02:13;;;;;;;10.95;7.32;;;4.50;85.80;;;;;;5076168;28;20028;-43
2023/04/05 07:04:42;;;;;;;9.73;5.97;;;4.70;85.20;;;;;;5060799;28;20048;-46
2023/04/05 07:07:09;;;;;;;8.00;5.90;;;4.80;82.70;;;;;;5055972;28;20071;-46
2023/04/05 07:09:38;;;;;;;9.05;5.10;;;4.90;81.20;;;;;;5055541;28;20049;-42
2023/04/05 07:12:06;;;;;;;9.95;5.22;;;5.10;77.30;;;;;;5054858;28;20035;-46
2023/04/05 07:14:36;;;;;;;10.73;5.27;;;5.20;76.50;;;;;;5054958;28;20044;-45
2023/04/05 07:17:05;;;;;;;5.85;4.47;;;5.40;73.90;;;;;;5055628;28;20025;-46
2023/04/05 07:19:34;;;;;;;6.30;3.75;;;5.60;72.40;;;;;;5055513;28;20040;-47
2023/04/05 07:22:01;;;;;;;7.38;4.30;;;5.90;69.50;;;;;;5054728;28;20043;-49
2023/04/05 07:24:28;;;;;;;8.90;3.67;;;6.20;68.60;;;;;;5055523;28;20112;-43
2023/04/05 07:26:55;;;;;;;6.18;3.30;;;6.40;67.10;;;;;;5075281;28;20029;-48
2023/04/05 07:29:25;;;;;;;8.65;3.28;;;6.70;63.70;;;;;;5072769;28;20039;-43
2023/04/05 07:31:53;;;;;;;4.40;2.42;;;6.90;59.40;;;;;;5054094;28;20099;-45
2023/04/05 07:34:23;;;;;;;6.40;3.20;;;7.20;59.10;;;;;;5055280;28;20104;-44
2023/04/05 07:36:51;;;;;;;7.45;2.67;;;7.40;57.50;;;;;;5054441;28;20029;-45
2023/04/05 07:39:20;;;;;;;5.82;3.10;;;7.70;57.70;;;;;;5055244;28;20032;-48
2023/04/05 07:41:47;;;;;;;5.75;2.90;;;8.00;54.50;;;;;;5055540;28;20087;-48
2023/04/05 07:44:16;;;;;;;5.60;2.92;;;8.40;50.40;;;;;;5054203;28;20462;-43
2023/04/05 07:46:43;;;;;;;5.50;3.15;;;8.70;49.10;;;;;;5055043;28;20470;-44
2023/04/05 07:49:11;;;;;;;7.00;4.03;;;9.10;49.50;;;;;;5054550;28;20036;-45
2023/04/05 07:51:42;;;;;;;5.78;2.78;;;9.50;45.20;;;;;;5054345;28;20049;-44
2023/04/05 07:54:08;;;;;;;7.90;2.83;;;10.00;46.60;;;;;;5054681;28;20035;-46
2023/04/05 07:56:37;;;;;;;5.07;2.75;;;10.50;45.40;;;;;;5054616;28;20039;-46
2023/04/05 07:59:04;;;;;;;6.25;3.38;;;10.90;43.70;;;;;;5037540;28;20035;-46
2023/04/05 08:01:31;;;;;;;8.15;3.38;;;11.30;43.80;;;;;;5054490;28;20083;-45
2023/04/05 08:03:57;;;;;;;8.07;3.20;;;11.50;41.70;;;;;;5055241;28;20086;-45
2023/04/05 08:06:23;;;;;;;6.07;3.53;;;11.70;40.00;;;;;;5054839;28;20450;-45
2023/04/05 08:08:49;;;;;;;7.28;4.30;;;12.20;42.00;;;;;;5054074;28;20076;-45
2023/04/05 08:11:17;;;;;;;10.50;4.13;;;12.20;40.40;;;;;;5053858;28;20075;-45
2023/04/05 08:13:45;;;;;;;6.10;3.15;;;12.20;36.10;;;;;;5055585;28;20059;-46
2023/04/05 08:16:13;;;;;;;6.20;3.50;;;12.30;37.40;;;;;;5073807;28;20068;-46
2023/04/05 08:18:39;;;;;;;4.85;2.90;;;12.70;36.40;;;;;;5074530;28;20373;-44
2023/04/05 08:21:06;;;;;;;7.72;2.80;;;12.70;37.80;;;;;;5074452;28;20040;-51
2023/04/05 08:23:35;;;;;;;3.60;2.42;;;12.90;36.90;;;;;;5071141;28;20036;-48
2023/04/05 08:26:02;;;;;;;6.65;2.60;;;12.90;36.50;;;;;;5054412;28;20091;-45
2023/04/05 08:28:30;;;;;;;5.85;2.67;;;13.10;36.50;;;;;;5053332;28;20033;-44
2023/04/05 08:30:57;;;;;;;5.00;2.67;;;13.20;36.30;;;;;;5054237;28;20086;-46
2023/04/05 08:33:29;;;;;;;7.93;3.10;;;13.30;35.60;;;;;;5054401;28;20086;-44
2023/04/05 08:36:02;;;;;;;6.75;2.75;;;13.40;35.60;;;;;;5053969;28;20319;-48
2023/04/05 08:38:30;;;;;;;4.35;2.65;;;13.40;35.30;;;;;;5052993;28;20044;-46
2023/04/05 08:41:05;;;;;;;5.78;2.85;;;13.30;34.80;;;;;;5053913;28;20021;-46
2023/04/05 08:44:01;;;;;;;4.32;2.58;;;13.20;34.70;;;;;;5036169;28;20036;-45
2023/04/05 08:46:35;;;;;;;6.35;3.42;;;12.60;33.40;;;;;;5053945;28;20052;-44
2023/04/05 08:49:10;;;;;;;4.90;2.83;;;12.30;34.20;;;;;;5066369;28;20044;-46
2023/04/05 08:51:41;;;;;;;5.38;2.97;;;12.50;38.00;;;;;;5073879;28;20032;-45
2023/04/05 08:54:06;;;;;;;5.65;3.17;;;13.00;36.30;;;;;;5073670;28;20052;-45
2023/04/05 08:56:47;;;;;;;5.80;3.20;;;13.20;34.10;;;;;;5056049;28;20091;-44
2023/04/05 08:59:19;;;;;;;7.13;3.40;;;13.40;33.70;;;;;;5052593;28;20580;-46
2023/04/05 09:01:53;;;;;;;5.38;2.80;;;13.20;32.40;;;;;;5053655;28;20039;-48
2023/04/05 09:04:30;;;;;;;6.13;4.25;;;13.20;33.20;;;;;;5058642;28;20033;-47
2023/04/05 09:07:00;;;;;;;5.75;3.30;;;13.30;33.90;;;;;;5073576;28;20024;-45
2023/04/05 09:09:31;;;;;;;6.85;3.13;;;13.00;35.30;;;;;;5073077;28;20106;-45
2023/04/05 09:11:58;;;;;;;5.07;2.60;;;13.20;34.30;;;;;;5058262;28;20036;-46
2023/04/05 09:14:26;;;;;;;10.25;3.83;;;12.90;34.50;;;;;;5052436;28;20426;-48
2023/04/05 09:16:55;;;;;;;4.35;3.03;;;12.90;33.30;;;;;;5052916;28;20045;-45
2023/04/05 09:19:24;;;;;;;5.57;2.63;;;12.90;33.80;;;;;;5052481;28;20083;-48
2023/04/05 09:22:09;;;;;;;7.38;3.10;;;13.00;35.50;;;;;;5053149;28;20049;-45
2023/04/05 09:24:53;;;;;;;4.25;2.45;;;13.20;33.30;;;;;;5053209;28;20112;-47
2023/04/05 09:27:19;;;;;;;5.63;3.03;;;13.00;33.70;;;;;;5053273;28;20041;-45
2023/04/05 09:29:47;;;;;;;6.25;3.50;;;13.10;34.10;;;;;;5053073;28;20094;-45
2023/04/05 09:32:16;;;;;;;5.72;2.90;;;13.00;34.70;;;;;;5052120;28;20035;-47
2023/04/05 09:34:43;;;;;;;;;;;12.90;32.30;;;;;;5064608;28;20037;-45
2023/04/05 09:37:28;;;;;;;7.32;3.05;;;12.90;35.50;;;;;;5073116;28;20310;-46
2023/04/05 09:40:02;;;;;;;5.93;3.00;;;12.70;33.60;;;;;;5073088;28;20029;-47
2023/04/05 09:42:41;;;;;;;4.28;2.92;;;12.70;35.70;;;;;;5055527;28;20036;-47
2023/04/05 09:45:11;;;;;;;5.68;3.05;;;12.90;35.80;;;;;;5037282;28;20086;-48
2023/04/05 09:47:50;;;;;;;5.20;3.17;;;12.90;33.80;;;;;;5052009;28;20037;-45
2023/04/05 09:50:28;;;;;;;4.53;2.33;;;12.80;33.30;;;;;;5051884;28;20036;-46
2023/04/05 09:53:18;;;;;;;3.92;2.42;;;13.00;36.20;;;;;;5053348;28;20029;-46
2023/04/05 09:55:45;;;;;;;5.38;2.72;;;13.10;33.40;;;;;;5052718;28;20130;-46
2023/04/05 09:58:20;;;;;;;4.18;2.47;;;13.30;36.40;;;;;;5051906;28;20064;-44
2023/04/05 10:00:53;;;;;;;4.35;2.45;;;13.50;34.70;;;;;;5052055;28;20025;-45
2023/04/05 10:03:24;;;;;;;3.65;2.30;;;13.50;33.10;;;;;;5051489;28;20370;-45
2023/04/05 10:06:00;;;;;;;7.78;3.15;;;13.50;34.70;;;;;;5035149;28;20033;-49
2023/04/05 10:08:26;;;;;;;4.78;3.00;;;13.40;34.40;;;;;;5052297;28;20045;-48
2023/04/05 10:10:55;;;;;;;4.68;2.65;;;13.30;33.30;;;;;;5052838;28;20032;-47
2023/04/05 10:13:21;;;;;;;4.97;2.40;;;13.60;33.80;;;;;;5035166;28;20473;-47
2023/04/05 10:15:49;;;;;;;5.60;3.83;;;13.70;33.80;;;;;;5053000;28;20029;-45
2023/04/05 10:18:20;;;;;;;3.42;2.20;;;13.50;33.50;;;;;;5051963;28;20032;-47
2023/04/05 10:20:49;;;;;;;5.82;2.28;;;13.40;32.80;;;;;;5035610;28;20029;-49
2023/04/05 10:23:37;;;;;;;5.30;2.47;;;13.50;34.80;;;;;;5052119;28;20037;-48
2023/04/05 10:26:21;;;;;;;5.20;2.47;;;13.70;36.30;;;;;;5052658;28;20035;-45
2023/04/05 10:28:52;;;;;;;4.85;2.00;;;13.30;34.10;;;;;;5052613;28;20091;-45
2023/04/05 10:31:49;;;;;;;6.13;2.50;;;13.40;33.90;;;;;;5052397;28;20017;-45
2023/04/05 10:34:47;;;;;;;3.90;2.17;;;13.30;32.80;;;;;;5052204;28;20037;-46
2023/04/05 10:37:36;;;;;;;3.55;2.22;;;13.70;36.00;;;;;;5051941;28;20153;-48
2023/04/05 10:40:09;;;;;;;4.47;2.92;;;13.50;32.80;;;;;;5051379;28;20064;-45
2023/04/05 10:42:42;;;;;;;7.35;3.33;;;13.50;33.80;;;;;;5051580;28;20047;-49
2023/04/05 10:45:14;;;;;;;6.47;4.05;;;13.60;35.20;;;;;;5072397;28;20033;-45
2023/04/05 10:48:14;;;;;;;5.95;3.92;;;13.40;31.80;;;;;;5072628;28;20028;-47
2023/04/05 10:51:02;;;;;;;8.38;4.63;;;12.70;34.40;;;;;;5069654;28;20059;-46
2023/04/05 10:53:31;;;;;;;6.38;3.25;;;12.50;33.70;;;;;;5052494;28;20025;-45
2023/04/05 10:56:10;;;;;;;5.17;3.03;;;12.50;37.70;;;;;;5051229;28;20037;-47
2023/04/05 10:58:39;;;;;;;5.65;3.50;;;11.70;37.10;;;;;;5051403;28;20033;-50
2023/04/05 11:01:08;;;;;;;5.90;3.60;;;10.90;39.00;;;;;;5051301;28;20052;-45
2023/04/05 11:03:50;;;;;;;4.67;3.53;;;11.00;42.40;;;;;;5052481;28;20041;-46
2023/04/05 11:06:38;;;;;;;6.60;3.83;;;11.10;42.20;;;;;;5071223;28;20342;-44
2023/04/05 11:09:16;;;;;;;7.40;3.90;;;11.30;41.90;;;;;;5075435;28;20450;-51
2023/04/05 11:11:45;;;;;;;7.63;4.10;;;11.40;41.60;;;;;;5075547;28;20030;-45
2023/04/05 11:14:42;;;;;;;6.85;3.10;;;11.50;42.90;;;;;;5047132;28;20037;-48
2023/04/05 11:17:29;;;;;;;7.53;4.07;;;11.60;42.50;;;;;;5055764;28;20075;-45
2023/04/05 11:20:05;;;;;;;5.72;3.50;;;11.40;41.50;;;;;;5055682;28;20053;-45
2023/04/05 11:22:32;;;;;;;6.45;4.20;;;11.20;41.70;;;;;;5055843;28;20025;-47
2023/04/05 11:25:03;;;;;;;7.97;4.10;;;11.20;41.90;;;;;;5075726;28;20024;-45
2023/04/05 11:27:40;;;;;;;7.90;4.63;;;11.20;42.90;;;;;;5056783;28;20037;-46
2023/04/05 11:30:08;;;;;;;7.68;4.35;;;11.10;44.30;;;;;;5054520;28;20469;-45
2023/04/05 11:32:45;;;;;;;7.53;3.63;;;11.00;41.90;;;;;;5055418;28;20117;-48
2023/04/05 11:35:33;;;;;;;6.15;4.18;;;10.80;41.70;;;;;;5054533;28;20036;-44
2023/04/05 11:38:01;;;;;;;6.45;3.83;;;10.70;41.50;;;;;;5054353;28;20025;-46
2023/04/05 11:40:39;;;;;;;6.35;4.20;;;10.70;41.10;;;;;;5055438;28;20461;-45
2023/04/05 11:43:26;;;;;;;6.43;4.10;;;10.50;41.00;;;;;;5057238;28;20037;-46
2023/04/05 11:45:55;;;;;;;7.30;3.75;;;10.20;41.60;;;;;;5075213;28;20097;-45
2023/04/05 11:48:23;;;;;;;8.48;4.05;;;10.00;42.10;;;;;;5043919;28;20029;-45
2023/04/05 11:50:50;;;;;;;5.40;3.83;;;9.80;42.40;;;;;;5055081;28;20032;-46
2023/04/05 11:53:17;;;;;;;8.52;4.38;;;9.80;43.30;;;;;;5054067;28;20443;-48
2023/04/05 11:56:08;;;;;;;4.65;2.92;;;9.80;44.80;;;;;;5053831;28;20500;-46
2023/04/05 11:58:36;;;;;;;9.43;4.20;;;9.60;43.00;;;;;;5036642;28;20059;-46
2023/04/05 12:01:10;;;;;;;8.45;4.05;;;9.30;42.10;;;;;;5054402;28;20426;-44
2023/04/05 12:03:40;;;;;;;5.68;3.30;;;9.20;43.90;;;;;;5037961;28;20389;-45
2023/04/05 12:06:07;;;;;;;7.35;3.95;;;9.50;43.80;;;;;;5054849;28;20036;-46
2023/04/05 12:08:55;;;;;;;6.53;4.82;;;9.90;44.30;;;;;;5053345;28;20588;-45
2023/04/05 12:11:31;;;;;;;8.05;4.70;;;10.30;42.20;;;;;;5054609;28;20036;-44
2023/04/05 12:13:59;;;;;;;14.52;4.57;;;10.50;40.90;;;;;;5054825;28;20104;-45
2023/04/05 12:16:27;;;;;;;6.78;5.07;;;10.40;41.60;;;;;;5053803;28;20029;-45
2023/04/05 12:18:54;;;;;;;6.32;4.18;;;10.20;41.10;;;;;;5053438;28;20082;-45
2023/04/05 12:21:22;;;;;;;11.73;4.30;;;10.20;43.70;;;;;;5037193;28;20060;-45
2023/04/05 12:23:49;;;;;;;6.18;4.38;;;9.90;42.50;;;;;;5054407;28;20032;-44
2023/04/05 12:26:19;;;;;;;8.02;4.43;;;9.60;43.30;;;;;;5054261;28;20537;-43
2023/04/05 12:28:56;;;;;;;6.40;3.85;;;9.80;44.80;;;;;;5053576;28;20040;-45
2023/04/05 12:31:41;;;;;;;6.80;4.40;;;9.90;43.20;;;;;;5053280;28;20044;-45
2023/04/05 12:34:22;;;;;;;8.00;4.72;;;10.20;44.80;;;;;;5054278;28;20032;-47
2023/04/05 12:36:49;;;;;;;9.27;4.80;;;10.40;45.50;;;;;;5061080;28;20024;-45
2023/04/05 12:39:17;;;;;;;6.85;4.60;;;10.20;43.30;;;;;;5074100;28;20446;-46
2023/04/05 12:41:57;;;;;;;6.07;4.63;;;9.90;43.00;;;;;;5058800;28;20370;-45
2023/04/05 12:44:35;;;;;;;6.22;4.25;;;9.60;46.70;;;;;;5020317;28;20041;-44
2023/04/05 12:47:04;;;;;;;7.63;4.97;;;9.50;44.80;;;;;;5053896;28;20029;-45
2023/04/05 12:49:36;;;;;;;10.73;5.83;;;9.70;46.80;;;;;;5053771;28;20043;-46
2023/04/05 12:52:04;;;;;;;9.65;5.15;;;9.70;44.70;;;;;;5052963;28;20357;-44
2023/04/05 12:54:31;;;;;;;6.65;5.03;;;9.80;45.00;;;;;;5052803;28;20029;-46
2023/04/05 12:57:03;;;;;;;17.30;6.93;;;9.80;45.00;;;;;;5054035;28;20014;-49
2023/04/05 12:59:29;;;;;;;8.73;5.13;;;9.70;44.10;;;;;;5052381;28;20037;-46
2023/04/05 13:02:00;;;;;;;7.38;5.03;;;9.80;44.90;;;;;;5052993;28;20025;-45
2023/04/05 13:04:26;;;;;;;9.70;5.50;;;9.90;45.90;;;;;;5053625;28;20112;-45
2023/04/05 13:06:53;;;;;;;9.63;5.22;;;9.90;46.20;;;;;;5053698;28;20403;-46
2023/04/05 13:09:21;;;;;;;8.32;5.18;;;9.80;46.80;;;;;;5052953;28;20049;-45
2023/04/05 13:11:46;;;;;;;7.78;5.40;;;9.80;47.50;;;;;;5052474;28;20031;-46